sensor_id;sensor_type;location;lat;lon;timestamp;P1;durP1;ratioP1;P2;durP2;ratioP2
45039;SDS011;30778;53.574;7.770;2023-07-13T00:02:00;3.47;;;0.98;;
45039;SDS011;30778;53.574;7.770;2023-07-13T00:04:26;1.42;;;0.93;;
45039;SDS011;30778;53.574;7.770;2023-07-13T00:06:52;2.53;;;0.63;;
45039;SDS011;30778;53.574;7.770;2023-07-13T00:09:18;3.40;;;0.75;;
45039;SDS011;30778;53.574;7.770;2023-07-13T00:11:44;3.13;;;0.73;;
45039;SDS011;30778;53.574;7.770;2023-07-13T00:14:12;3.22;;;1.38;;
45039;SDS011;30778;53.574;7.770;2023-07-13T00:16:39;1.60;;;0.70;;
45039;SDS011;30778;53.574;7.770;2023-07-13T00:19:09;2.05;;;1.00;;
45039;SDS011;30778;53.574;7.770;2023-07-13T00:21:35;1.80;;;0.60;;
45039;SDS011;30778;53.574;7.770;2023-07-13T00:24:01;1.80;;;0.82;;
45039;SDS011;30778;53.574;7.770;2023-07-13T00:26:27;3.47;;;1.10;;
45039;SDS011;30778;53.574;7.770;2023-07-13T00:28:52;3.13;;;1.00;;
45039;SDS011;30778;53.574;7.770;2023-07-13T00:31:18;2.97;;;0.88;;
45039;SDS011;30778;53.574;7.770;2023-07-13T00:33:46;4.53;;;1.48;;
45039;SDS011;30778;53.574;7.770;2023-07-13T00:36:13;6.43;;;1.08;;
45039;SDS011;30778;53.574;7.770;2023-07-13T00:38:39;1.85;;;1.23;;
45039;SDS011;30778;53.574;7.770;2023-07-13T00:41:06;1.85;;;1.05;;
45039;SDS011;30778;53.574;7.770;2023-07-13T00:43:32;8.52;;;1.63;;
45039;SDS011;30778;53.574;7.770;2023-07-13T00:48:28;3.65;;;1.30;;
45039;SDS011;30778;53.574;7.770;2023-07-13T00:50:57;4.65;;;1.25;;
45039;SDS011;30778;53.574;7.770;2023-07-13T00:53:25;4.20;;;1.00;;
45039;SDS011;30778;53.574;7.770;2023-07-13T00:55:52;6.53;;;1.15;;
45039;SDS011;30778;53.574;7.770;2023-07-13T00:58:21;2.60;;;0.90;;
45039;SDS011;30778;53.574;7.770;2023-07-13T01:00:46;10.15;;;0.93;;
45039;SDS011;30778;53.574;7.770;2023-07-13T01:03:14;3.30;;;0.77;;
45039;SDS011;30778;53.574;7.770;2023-07-13T01:05:40;6.05;;;1.27;;
45039;SDS011;30778;53.574;7.770;2023-07-13T01:08:06;5.22;;;1.10;;
45039;SDS011;30778;53.574;7.770;2023-07-13T01:10:33;1.80;;;1.15;;
45039;SDS011;30778;53.574;7.770;2023-07-13T01:13:05;6.95;;;1.02;;
45039;SDS011;30778;53.574;7.770;2023-07-13T01:15:55;4.00;;;1.02;;
45039;SDS011;30778;53.574;7.770;2023-07-13T01:18:23;1.95;;;0.68;;
45039;SDS011;30778;53.574;7.770;2023-07-13T01:23:22;3.35;;;1.08;;
45039;SDS011;30778;53.574;7.770;2023-07-13T01:25:49;5.03;;;1.02;;
45039;SDS011;30778;53.574;7.770;2023-07-13T01:28:16;4.70;;;0.65;;
45039;SDS011;30778;53.574;7.770;2023-07-13T01:30:42;3.92;;;1.08;;
45039;SDS011;30778;53.574;7.770;2023-07-13T01:33:11;5.68;;;1.70;;
45039;SDS011;30778;53.574;7.770;2023-07-13T01:35:38;4.10;;;0.70;;
45039;SDS011;30778;53.574;7.770;2023-07-13T01:38:04;4.13;;;0.60;;
45039;SDS011;30778;53.574;7.770;2023-07-13T01:40:29;1.95;;;0.50;;
45039;SDS011;30778;53.574;7.770;2023-07-13T01:42:56;8.55;;;1.45;;
45039;SDS011;30778;53.574;7.770;2023-07-13T01:45:23;8.90;;;1.35;;
45039;SDS011;30778;53.574;7.770;2023-07-13T01:47:48;2.72;;;0.70;;
45039;SDS011;30778;53.574;7.770;2023-07-13T01:50:14;2.78;;;1.00;;
45039;SDS011;30778;53.574;7.770;2023-07-13T01:52:39;4.30;;;1.02;;
45039;SDS011;30778;53.574;7.770;2023-07-13T01:55:08;4.75;;;1.20;;
45039;SDS011;30778;53.574;7.770;2023-07-13T01:57:34;5.25;;;1.27;;
45039;SDS011;30778;53.574;7.770;2023-07-13T01:59:59;2.53;;;0.70;;
45039;SDS011;30778;53.574;7.770;2023-07-13T02:02:26;2.70;;;2.22;;
45039;SDS011;30778;53.574;7.770;2023-07-13T02:04:51;5.55;;;1.05;;
45039;SDS011;30778;53.574;7.770;2023-07-13T02:07:17;3.20;;;0.82;;
45039;SDS011;30778;53.574;7.770;2023-07-13T02:09:43;8.73;;;1.20;;
45039;SDS011;30778;53.574;7.770;2023-07-13T02:12:08;7.95;;;1.52;;
45039;SDS011;30778;53.574;7.770;2023-07-13T02:14:34;2.53;;;1.13;;
45039;SDS011;30778;53.574;7.770;2023-07-13T02:16:59;4.75;;;0.90;;
45039;SDS011;30778;53.574;7.770;2023-07-13T02:19:25;4.50;;;1.20;;
45039;SDS011;30778;53.574;7.770;2023-07-13T02:21:50;2.75;;;1.52;;
45039;SDS011;30778;53.574;7.770;2023-07-13T02:24:16;5.90;;;1.38;;
45039;SDS011;30778;53.574;7.770;2023-07-13T02:26:44;6.53;;;0.93;;
45039;SDS011;30778;53.574;7.770;2023-07-13T02:29:10;4.00;;;1.83;;
45039;SDS011;30778;53.574;7.770;2023-07-13T02:31:36;6.47;;;1.00;;
45039;SDS011;30778;53.574;7.770;2023-07-13T02:34:01;3.58;;;1.10;;
45039;SDS011;30778;53.574;7.770;2023-07-13T02:36:28;8.57;;;1.63;;
45039;SDS011;30778;53.574;7.770;2023-07-13T02:38:53;11.05;;;1.60;;
45039;SDS011;30778;53.574;7.770;2023-07-13T02:41:19;5.10;;;1.67;;
45039;SDS011;30778;53.574;7.770;2023-07-13T02:43:45;6.05;;;2.08;;
45039;SDS011;30778;53.574;7.770;2023-07-13T02:46:10;3.70;;;1.00;;
45039;SDS011;30778;53.574;7.770;2023-07-13T02:48:36;10.50;;;2.10;;
45039;SDS011;30778;53.574;7.770;2023-07-13T02:51:03;7.38;;;1.60;;
45039;SDS011;30778;53.574;7.770;2023-07-13T02:53:28;16.48;;;2.10;;
45039;SDS011;30778;53.574;7.770;2023-07-13T02:55:54;5.45;;;0.98;;
45039;SDS011;30778;53.574;7.770;2023-07-13T02:58:19;4.38;;;1.02;;
45039;SDS011;30778;53.574;7.770;2023-07-13T03:00:45;9.82;;;2.05;;
45039;SDS011;30778;53.574;7.770;2023-07-13T03:03:13;4.75;;;2.05;;
45039;SDS011;30778;53.574;7.770;2023-07-13T03:05:41;5.28;;;2.08;;
45039;SDS011;30778;53.574;7.770;2023-07-13T03:08:08;7.25;;;1.50;;
45039;SDS011;30778;53.574;7.770;2023-07-13T03:10:35;5.43;;;1.15;;
45039;SDS011;30778;53.574;7.770;2023-07-13T03:13:01;8.70;;;1.17;;
45039;SDS011;30778;53.574;7.770;2023-07-13T03:15:27;7.15;;;1.45;;
45039;SDS011;30778;53.574;7.770;2023-07-13T03:17:57;9.30;;;1.60;;
45039;SDS011;30778;53.574;7.770;2023-07-13T03:20:22;10.05;;;1.20;;
45039;SDS011;30778;53.574;7.770;2023-07-13T03:22:48;7.80;;;1.48;;
45039;SDS011;30778;53.574;7.770;2023-07-13T03:25:15;6.00;;;1.40;;
45039;SDS011;30778;53.574;7.770;2023-07-13T03:27:41;6.13;;;1.40;;
45039;SDS011;30778;53.574;7.770;2023-07-13T03:30:08;4.95;;;1.35;;
45039;SDS011;30778;53.574;7.770;2023-07-13T03:32:34;9.98;;;1.40;;
45039;SDS011;30778;53.574;7.770;2023-07-13T03:34:59;7.47;;;2.22;;
45039;SDS011;30778;53.574;7.770;2023-07-13T03:37:28;4.60;;;1.30;;
45039;SDS011;30778;53.574;7.770;2023-07-13T03:39:54;4.43;;;1.05;;
45039;SDS011;30778;53.574;7.770;2023-07-13T03:42:19;9.00;;;1.83;;
45039;SDS011;30778;53.574;7.770;2023-07-13T03:44:45;5.65;;;1.27;;
45039;SDS011;30778;53.574;7.770;2023-07-13T03:49:43;5.13;;;1.10;;
45039;SDS011;30778;53.574;7.770;2023-07-13T03:52:09;6.15;;;0.57;;
45039;SDS011;30778;53.574;7.770;2023-07-13T03:54:34;7.97;;;1.70;;
45039;SDS011;30778;53.574;7.770;2023-07-13T03:57:01;7.82;;;1.02;;
45039;SDS011;30778;53.574;7.770;2023-07-13T03:59:29;9.80;;;1.15;;
45039;SDS011;30778;53.574;7.770;2023-07-13T04:01:54;8.30;;;1.08;;
45039;SDS011;30778;53.574;7.770;2023-07-13T04:04:20;8.88;;;1.23;;
45039;SDS011;30778;53.574;7.770;2023-07-13T04:06:46;7.38;;;1.00;;
45039;SDS011;30778;53.574;7.770;2023-07-13T04:09:11;7.53;;;1.02;;
45039;SDS011;30778;53.574;7.770;2023-07-13T04:11:37;9.50;;;1.70;;
45039;SDS011;30778;53.574;7.770;2023-07-13T04:14:04;5.30;;;0.68;;
45039;SDS011;30778;53.574;7.770;2023-07-13T04:16:30;4.75;;;0.80;;
45039;SDS011;30778;53.574;7.770;2023-07-13T04:18:56;6.97;;;1.30;;
45039;SDS011;30778;53.574;7.770;2023-07-13T04:21:25;8.13;;;1.27;;
45039;SDS011;30778;53.574;7.770;2023-07-13T04:23:55;7.63;;;0.88;;
45039;SDS011;30778;53.574;7.770;2023-07-13T04:26:21;7.65;;;1.17;;
45039;SDS011;30778;53.574;7.770;2023-07-13T04:28:47;4.75;;;0.88;;
45039;SDS011;30778;53.574;7.770;2023-07-13T04:31:13;9.63;;;1.10;;
45039;SDS011;30778;53.574;7.770;2023-07-13T04:33:39;4.57;;;0.77;;
45039;SDS011;30778;53.574;7.770;2023-07-13T04:36:05;8.43;;;1.83;;
45039;SDS011;30778;53.574;7.770;2023-07-13T04:38:31;7.05;;;1.42;;
45039;SDS011;30778;53.574;7.770;2023-07-13T04:40:59;11.60;;;1.40;;
45039;SDS011;30778;53.574;7.770;2023-07-13T04:43:26;5.07;;;1.00;;
45039;SDS011;30778;53.574;7.770;2023-07-13T04:45:53;12.10;;;1.58;;
45039;SDS011;30778;53.574;7.770;2023-07-13T04:48:18;7.55;;;1.13;;
45039;SDS011;30778;53.574;7.770;2023-07-13T04:50:44;6.95;;;1.20;;
45039;SDS011;30778;53.574;7.770;2023-07-13T04:53:10;5.00;;;0.90;;
45039;SDS011;30778;53.574;7.770;2023-07-13T04:55:36;10.13;;;2.08;;
45039;SDS011;30778;53.574;7.770;2023-07-13T04:58:02;5.85;;;1.17;;
45039;SDS011;30778;53.574;7.770;2023-07-13T05:00:29;12.05;;;1.42;;
45039;SDS011;30778;53.574;7.770;2023-07-13T05:02:55;3.63;;;1.30;;
45039;SDS011;30778;53.574;7.770;2023-07-13T05:05:25;4.30;;;0.80;;
45039;SDS011;30778;53.574;7.770;2023-07-13T05:07:52;7.82;;;1.33;;
45039;SDS011;30778;53.574;7.770;2023-07-13T05:10:18;11.52;;;1.48;;
45039;SDS011;30778;53.574;7.770;2023-07-13T05:12:44;6.78;;;1.80;;
45039;SDS011;30778;53.574;7.770;2023-07-13T05:15:10;10.35;;;1.38;;
45039;SDS011;30778;53.574;7.770;2023-07-13T05:17:36;8.57;;;1.40;;
45039;SDS011;30778;53.574;7.770;2023-07-13T05:20:04;12.80;;;1.65;;
45039;SDS011;30778;53.574;7.770;2023-07-13T05:22:31;9.85;;;0.88;;
45039;SDS011;30778;53.574;7.770;2023-07-13T05:24:56;8.65;;;2.00;;
45039;SDS011;30778;53.574;7.770;2023-07-13T05:27:22;7.40;;;1.40;;
45039;SDS011;30778;53.574;7.770;2023-07-13T05:29:48;6.82;;;0.73;;
45039;SDS011;30778;53.574;7.770;2023-07-13T05:32:17;8.70;;;1.10;;
45039;SDS011;30778;53.574;7.770;2023-07-13T05:34:44;8.35;;;1.85;;
45039;SDS011;30778;53.574;7.770;2023-07-13T05:37:09;10.10;;;1.50;;
45039;SDS011;30778;53.574;7.770;2023-07-13T05:39:35;10.10;;;1.10;;
45039;SDS011;30778;53.574;7.770;2023-07-13T05:42:01;6.35;;;1.33;;
45039;SDS011;30778;53.574;7.770;2023-07-13T05:44:30;11.35;;;1.40;;
45039;SDS011;30778;53.574;7.770;2023-07-13T05:46:56;6.22;;;1.52;;
45039;SDS011;30778;53.574;7.770;2023-07-13T05:49:22;12.85;;;1.70;;
45039;SDS011;30778;53.574;7.770;2023-07-13T05:51:48;9.23;;;1.05;;
45039;SDS011;30778;53.574;7.770;2023-07-13T05:54:14;5.00;;;1.33;;
45039;SDS011;30778;53.574;7.770;2023-07-13T05:56:39;8.63;;;2.42;;
45039;SDS011;30778;53.574;7.770;2023-07-13T05:59:05;4.78;;;1.23;;
45039;SDS011;30778;53.574;7.770;2023-07-13T06:01:31;8.68;;;1.92;;
45039;SDS011;30778;53.574;7.770;2023-07-13T06:03:56;10.38;;;1.67;;
45039;SDS011;30778;53.574;7.770;2023-07-13T06:06:22;10.18;;;2.13;;
45039;SDS011;30778;53.574;7.770;2023-07-13T06:08:48;6.30;;;1.58;;
45039;SDS011;30778;53.574;7.770;2023-07-13T06:11:18;5.78;;;1.20;;
45039;SDS011;30778;53.574;7.770;2023-07-13T06:13:46;11.77;;;1.40;;
45039;SDS011;30778;53.574;7.770;2023-07-13T06:16:12;15.38;;;2.67;;
45039;SDS011;30778;53.574;7.770;2023-07-13T06:18:39;15.20;;;1.70;;
45039;SDS011;30778;53.574;7.770;2023-07-13T06:21:09;12.00;;;2.00;;
45039;SDS011;30778;53.574;7.770;2023-07-13T06:23:37;7.97;;;1.27;;
45039;SDS011;30778;53.574;7.770;2023-07-13T06:26:03;8.10;;;1.20;;
45039;SDS011;30778;53.574;7.770;2023-07-13T06:28:29;13.13;;;1.60;;
45039;SDS011;30778;53.574;7.770;2023-07-13T06:30:57;11.90;;;1.58;;
45039;SDS011;30778;53.574;7.770;2023-07-13T06:33:23;6.15;;;1.17;;
45039;SDS011;30778;53.574;7.770;2023-07-13T06:35:49;8.07;;;1.63;;
45039;SDS011;30778;53.574;7.770;2023-07-13T06:38:14;11.52;;;1.52;;
45039;SDS011;30778;53.574;7.770;2023-07-13T06:40:40;6.57;;;1.70;;
45039;SDS011;30778;53.574;7.770;2023-07-13T06:43:06;6.05;;;1.38;;
45039;SDS011;30778;53.574;7.770;2023-07-13T06:45:39;6.90;;;1.15;;
45039;SDS011;30778;53.574;7.770;2023-07-13T06:48:06;7.80;;;1.63;;
45039;SDS011;30778;53.574;7.770;2023-07-13T06:50:33;7.78;;;1.55;;
45039;SDS011;30778;53.574;7.770;2023-07-13T06:52:59;10.63;;;1.35;;
45039;SDS011;30778;53.574;7.770;2023-07-13T06:55:25;7.43;;;1.08;;
45039;SDS011;30778;53.574;7.770;2023-07-13T06:57:51;7.97;;;1.27;;
45039;SDS011;30778;53.574;7.770;2023-07-13T07:00:16;5.10;;;1.05;;
45039;SDS011;30778;53.574;7.770;2023-07-13T07:02:42;7.47;;;1.55;;
45039;SDS011;30778;53.574;7.770;2023-07-13T07:05:08;4.40;;;0.77;;
45039;SDS011;30778;53.574;7.770;2023-07-13T07:07:34;4.15;;;1.00;;
45039;SDS011;30778;53.574;7.770;2023-07-13T07:09:59;4.00;;;1.13;;
45039;SDS011;30778;53.574;7.770;2023-07-13T07:12:25;5.28;;;0.98;;
45039;SDS011;30778;53.574;7.770;2023-07-13T07:14:50;5.82;;;1.00;;
45039;SDS011;30778;53.574;7.770;2023-07-13T07:17:16;8.45;;;0.60;;
45039;SDS011;30778;53.574;7.770;2023-07-13T07:19:42;5.30;;;1.25;;
45039;SDS011;30778;53.574;7.770;2023-07-13T07:22:08;5.72;;;1.23;;
45039;SDS011;30778;53.574;7.770;2023-07-13T07:24:33;9.10;;;1.33;;
45039;SDS011;30778;53.574;7.770;2023-07-13T07:26:59;3.17;;;0.90;;
45039;SDS011;30778;53.574;7.770;2023-07-13T07:29:24;6.72;;;0.70;;
45039;SDS011;30778;53.574;7.770;2023-07-13T07:31:51;5.22;;;0.85;;
45039;SDS011;30778;53.574;7.770;2023-07-13T07:34:17;2.58;;;0.50;;
45039;SDS011;30778;53.574;7.770;2023-07-13T07:36:43;8.52;;;1.40;;
45039;SDS011;30778;53.574;7.770;2023-07-13T07:39:08;9.77;;;0.80;;
45039;SDS011;30778;53.574;7.770;2023-07-13T07:41:34;4.28;;;0.40;;
45039;SDS011;30778;53.574;7.770;2023-07-13T07:43:59;6.70;;;1.13;;
45039;SDS011;30778;53.574;7.770;2023-07-13T07:46:25;4.00;;;0.50;;
45039;SDS011;30778;53.574;7.770;2023-07-13T07:48:50;5.97;;;0.70;;
45039;SDS011;30778;53.574;7.770;2023-07-13T07:51:16;2.08;;;0.55;;
45039;SDS011;30778;53.574;7.770;2023-07-13T07:53:42;6.20;;;0.73;;
45039;SDS011;30778;53.574;7.770;2023-07-13T07:56:07;3.78;;;0.52;;
45039;SDS011;30778;53.574;7.770;2023-07-13T07:58:35;2.63;;;0.50;;
45039;SDS011;30778;53.574;7.770;2023-07-13T08:01:07;4.25;;;0.30;;
45039;SDS011;30778;53.574;7.770;2023-07-13T08:03:33;3.13;;;0.90;;
45039;SDS011;30778;53.574;7.770;2023-07-13T08:05:59;6.20;;;0.80;;
45039;SDS011;30778;53.574;7.770;2023-07-13T08:08:24;2.88;;;0.95;;
45039;SDS011;30778;53.574;7.770;2023-07-13T08:10:51;3.85;;;0.45;;
45039;SDS011;30778;53.574;7.770;2023-07-13T08:13:17;3.58;;;0.22;;
45039;SDS011;30778;53.574;7.770;2023-07-13T08:15:43;3.53;;;0.70;;
45039;SDS011;30778;53.574;7.770;2023-07-13T08:18:08;1.33;;;0.35;;
45039;SDS011;30778;53.574;7.770;2023-07-13T08:20:40;3.88;;;0.30;;
45039;SDS011;30778;53.574;7.770;2023-07-13T08:23:06;3.75;;;0.45;;
45039;SDS011;30778;53.574;7.770;2023-07-13T08:25:34;2.58;;;0.20;;
45039;SDS011;30778;53.574;7.770;2023-07-13T08:28:00;2.83;;;0.25;;
45039;SDS011;30778;53.574;7.770;2023-07-13T08:30:26;2.83;;;0.20;;
45039;SDS011;30778;53.574;7.770;2023-07-13T08:32:51;4.63;;;0.30;;
45039;SDS011;30778;53.574;7.770;2023-07-13T08:35:18;2.75;;;0.20;;
45039;SDS011;30778;53.574;7.770;2023-07-13T08:37:44;3.83;;;0.28;;
45039;SDS011;30778;53.574;7.770;2023-07-13T08:40:10;1.55;;;0.20;;
45039;SDS011;30778;53.574;7.770;2023-07-13T08:42:37;3.92;;;0.40;;
45039;SDS011;30778;53.574;7.770;2023-07-13T08:45:20;1.70;;;0.20;;
45039;SDS011;30778;53.574;7.770;2023-07-13T08:53:42;5.93;;;0.45;;
45039;SDS011;30778;53.574;7.770;2023-07-13T08:56:19;3.30;;;0.30;;
45039;SDS011;30778;53.574;7.770;2023-07-13T08:58:48;6.95;;;1.42;;
45039;SDS011;30778;53.574;7.770;2023-07-13T09:04:25;2.33;;;0.40;;
45039;SDS011;30778;53.574;7.770;2023-07-13T09:10:45;3.72;;;0.30;;
45039;SDS011;30778;53.574;7.770;2023-07-13T09:15:14;3.92;;;1.20;;
45039;SDS011;30778;53.574;7.770;2023-07-13T09:17:48;5.68;;;0.43;;
45039;SDS011;30778;53.574;7.770;2023-07-13T09:20:30;4.50;;;0.40;;
45039;SDS011;30778;53.574;7.770;2023-07-13T09:23:00;2.67;;;0.60;;
45039;SDS011;30778;53.574;7.770;2023-07-13T09:25:31;2.88;;;0.40;;
45039;SDS011;30778;53.574;7.770;2023-07-13T09:27:59;1.85;;;0.55;;
45039;SDS011;30778;53.574;7.770;2023-07-13T09:33:28;2.92;;;0.60;;
45039;SDS011;30778;53.574;7.770;2023-07-13T09:35:58;2.60;;;0.30;;
45039;SDS011;30778;53.574;7.770;2023-07-13T09:38:25;3.55;;;0.63;;
45039;SDS011;30778;53.574;7.770;2023-07-13T09:46:39;1.27;;;0.22;;
45039;SDS011;30778;53.574;7.770;2023-07-13T09:49:18;1.95;;;0.63;;
45039;SDS011;30778;53.574;7.770;2023-07-13T09:51:48;4.18;;;0.40;;
45039;SDS011;30778;53.574;7.770;2023-07-13T09:54:24;3.28;;;0.47;;
45039;SDS011;30778;53.574;7.770;2023-07-13T09:57:11;9.50;;;1.45;;
45039;SDS011;30778;53.574;7.770;2023-07-13T09:59:46;1.52;;;0.50;;
45039;SDS011;30778;53.574;7.770;2023-07-13T10:02:29;2.15;;;1.25;;
45039;SDS011;30778;53.574;7.770;2023-07-13T10:05:00;3.70;;;0.70;;
45039;SDS011;30778;53.574;7.770;2023-07-13T10:07:29;3.60;;;0.88;;
45039;SDS011;30778;53.574;7.770;2023-07-13T10:09:57;4.00;;;0.95;;
45039;SDS011;30778;53.574;7.770;2023-07-13T10:12:26;2.58;;;0.60;;
45039;SDS011;30778;53.574;7.770;2023-07-13T10:14:55;6.15;;;0.60;;
45039;SDS011;30778;53.574;7.770;2023-07-13T10:17:25;4.95;;;0.80;;
45039;SDS011;30778;53.574;7.770;2023-07-13T10:19:57;1.58;;;0.50;;
45039;SDS011;30778;53.574;7.770;2023-07-13T10:22:31;3.72;;;0.75;;
45039;SDS011;30778;53.574;7.770;2023-07-13T10:25:18;5.03;;;0.85;;
45039;SDS011;30778;53.574;7.770;2023-07-13T10:27:45;2.70;;;0.60;;
45039;SDS011;30778;53.574;7.770;2023-07-13T10:30:23;6.95;;;0.80;;
45039;SDS011;30778;53.574;7.770;2023-07-13T10:33:01;2.88;;;0.65;;
45039;SDS011;30778;53.574;7.770;2023-07-13T10:35:29;5.15;;;0.70;;
45039;SDS011;30778;53.574;7.770;2023-07-13T10:40:39;2.80;;;0.35;;
45039;SDS011;30778;53.574;7.770;2023-07-13T10:43:15;4.95;;;0.73;;
45039;SDS011;30778;53.574;7.770;2023-07-13T10:45:45;3.83;;;0.32;;
45039;SDS011;30778;53.574;7.770;2023-07-13T10:48:15;2.55;;;0.73;;
45039;SDS011;30778;53.574;7.770;2023-07-13T10:50:43;2.75;;;0.82;;
45039;SDS011;30778;53.574;7.770;2023-07-13T10:53:18;2.70;;;0.60;;
45039;SDS011;30778;53.574;7.770;2023-07-13T11:01:09;4.65;;;0.40;;
45039;SDS011;30778;53.574;7.770;2023-07-13T11:09:44;4.95;;;0.70;;
45039;SDS011;30778;53.574;7.770;2023-07-13T11:12:00;2.10;;;0.80;;
45039;SDS011;30778;53.574;7.770;2023-07-13T11:22:45;6.22;;;0.68;;
45039;SDS011;30778;53.574;7.770;2023-07-13T11:25:31;3.25;;;1.00;;
45039;SDS011;30778;53.574;7.770;2023-07-13T11:30:35;3.75;;;1.00;;
45039;SDS011;30778;53.574;7.770;2023-07-13T11:35:48;5.30;;;1.33;;
45039;SDS011;30778;53.574;7.770;2023-07-13T11:41:13;2.90;;;0.80;;
45039;SDS011;30778;53.574;7.770;2023-07-13T11:43:43;5.88;;;1.50;;
45039;SDS011;30778;53.574;7.770;2023-07-13T11:46:19;3.17;;;1.15;;
45039;SDS011;30778;53.574;7.770;2023-07-13T11:48:46;3.22;;;1.20;;
45039;SDS011;30778;53.574;7.770;2023-07-13T11:51:18;8.38;;;1.25;;
45039;SDS011;30778;53.574;7.770;2023-07-13T11:53:48;4.10;;;1.10;;
45039;SDS011;30778;53.574;7.770;2023-07-13T11:56:17;4.03;;;1.48;;
45039;SDS011;30778;53.574;7.770;2023-07-13T11:58:42;2.58;;;1.45;;
45039;SDS011;30778;53.574;7.770;2023-07-13T12:01:17;7.25;;;1.75;;
45039;SDS011;30778;53.574;7.770;2023-07-13T12:03:47;6.20;;;1.25;;
45039;SDS011;30778;53.574;7.770;2023-07-13T12:06:21;2.97;;;1.80;;
45039;SDS011;30778;53.574;7.770;2023-07-13T12:08:47;4.70;;;1.05;;
45039;SDS011;30778;53.574;7.770;2023-07-13T12:11:16;2.97;;;1.52;;
45039;SDS011;30778;53.574;7.770;2023-07-13T12:13:43;7.18;;;1.13;;
45039;SDS011;30778;53.574;7.770;2023-07-13T12:16:31;1.58;;;0.75;;
45039;SDS011;30778;53.574;7.770;2023-07-13T12:18:59;3.72;;;1.17;;
45039;SDS011;30778;53.574;7.770;2023-07-13T12:21:30;2.20;;;0.63;;
45039;SDS011;30778;53.574;7.770;2023-07-13T12:24:00;4.93;;;0.50;;
45039;SDS011;30778;53.574;7.770;2023-07-13T12:26:29;4.68;;;0.90;;
45039;SDS011;30778;53.574;7.770;2023-07-13T12:28:56;2.72;;;0.35;;
45039;SDS011;30778;53.574;7.770;2023-07-13T12:31:25;1.05;;;0.30;;
45039;SDS011;30778;53.574;7.770;2023-07-13T12:34:02;1.42;;;0.40;;
45039;SDS011;30778;53.574;7.770;2023-07-13T12:36:36;3.10;;;0.30;;
45039;SDS011;30778;53.574;7.770;2023-07-13T12:39:12;1.55;;;0.30;;
45039;SDS011;30778;53.574;7.770;2023-07-13T12:41:40;3.30;;;0.50;;
45039;SDS011;30778;53.574;7.770;2023-07-13T12:44:12;3.65;;;0.60;;
45039;SDS011;30778;53.574;7.770;2023-07-13T12:46:50;1.75;;;0.55;;
45039;SDS011;30778;53.574;7.770;2023-07-13T12:49:18;1.58;;;0.30;;
45039;SDS011;30778;53.574;7.770;2023-07-13T12:51:56;1.35;;;0.40;;
45039;SDS011;30778;53.574;7.770;2023-07-13T12:54:24;5.03;;;0.80;;
45039;SDS011;30778;53.574;7.770;2023-07-13T12:56:50;2.95;;;0.70;;
45039;SDS011;30778;53.574;7.770;2023-07-13T12:59:20;3.85;;;0.57;;
45039;SDS011;30778;53.574;7.770;2023-07-13T13:01:48;2.85;;;0.30;;
45039;SDS011;30778;53.574;7.770;2023-07-13T13:04:14;2.72;;;0.35;;
45039;SDS011;30778;53.574;7.770;2023-07-13T13:06:40;1.25;;;0.32;;
45039;SDS011;30778;53.574;7.770;2023-07-13T13:09:15;2.40;;;0.30;;
45039;SDS011;30778;53.574;7.770;2023-07-13T13:11:43;2.25;;;0.47;;
45039;SDS011;30778;53.574;7.770;2023-07-13T13:14:09;2.92;;;0.35;;
45039;SDS011;30778;53.574;7.770;2023-07-13T13:16:35;1.88;;;0.20;;
45039;SDS011;30778;53.574;7.770;2023-07-13T13:19:15;0.90;;;0.30;;
45039;SDS011;30778;53.574;7.770;2023-07-13T13:21:43;4.78;;;0.80;;
45039;SDS011;30778;53.574;7.770;2023-07-13T13:24:14;3.70;;;0.35;;
45039;SDS011;30778;53.574;7.770;2023-07-13T13:26:43;3.58;;;0.40;;
45039;SDS011;30778;53.574;7.770;2023-07-13T13:29:17;3.22;;;0.20;;
45039;SDS011;30778;53.574;7.770;2023-07-13T13:31:45;2.28;;;0.20;;
45039;SDS011;30778;53.574;7.770;2023-07-13T13:34:12;0.55;;;0.20;;
45039;SDS011;30778;53.574;7.770;2023-07-13T13:36:40;0.80;;;0.30;;
45039;SDS011;30778;53.574;7.770;2023-07-13T13:41:44;2.25;;;0.32;;
45039;SDS011;30778;53.574;7.770;2023-07-13T13:44:10;1.25;;;0.25;;
45039;SDS011;30778;53.574;7.770;2023-07-13T13:46:35;5.53;;;0.38;;
45039;SDS011;30778;53.574;7.770;2023-07-13T13:49:02;3.03;;;0.20;;
45039;SDS011;30778;53.574;7.770;2023-07-13T13:51:27;3.35;;;0.25;;
45039;SDS011;30778;53.574;7.770;2023-07-13T13:53:54;4.97;;;0.60;;
45039;SDS011;30778;53.574;7.770;2023-07-13T13:56:19;2.50;;;0.22;;
45039;SDS011;30778;53.574;7.770;2023-07-13T13:58:46;1.55;;;0.40;;
45039;SDS011;30778;53.574;7.770;2023-07-13T14:01:13;1.27;;;0.20;;
45039;SDS011;30778;53.574;7.770;2023-07-13T14:03:42;2.25;;;0.40;;
45039;SDS011;30778;53.574;7.770;2023-07-13T14:06:11;4.90;;;0.50;;
45039;SDS011;30778;53.574;7.770;2023-07-13T14:08:37;3.55;;;0.20;;
45039;SDS011;30778;53.574;7.770;2023-07-13T14:11:03;1.17;;;0.30;;
45039;SDS011;30778;53.574;7.770;2023-07-13T14:13:31;4.13;;;0.40;;
45039;SDS011;30778;53.574;7.770;2023-07-13T14:16:02;1.52;;;0.30;;
45039;SDS011;30778;53.574;7.770;2023-07-13T14:18:29;2.33;;;0.20;;
45039;SDS011;30778;53.574;7.770;2023-07-13T14:20:55;3.13;;;0.57;;
45039;SDS011;30778;53.574;7.770;2023-07-13T14:23:20;1.67;;;0.40;;
45039;SDS011;30778;53.574;7.770;2023-07-13T14:25:46;0.68;;;0.10;;
45039;SDS011;30778;53.574;7.770;2023-07-13T14:28:30;3.80;;;0.47;;
45039;SDS011;30778;53.574;7.770;2023-07-13T14:30:55;1.20;;;0.25;;
45039;SDS011;30778;53.574;7.770;2023-07-13T14:33:21;5.65;;;1.52;;
45039;SDS011;30778;53.574;7.770;2023-07-13T14:35:47;5.18;;;0.75;;
45039;SDS011;30778;53.574;7.770;2023-07-13T14:38:14;2.75;;;0.30;;
45039;SDS011;30778;53.574;7.770;2023-07-13T14:40:43;8.98;;;0.75;;
45039;SDS011;30778;53.574;7.770;2023-07-13T14:43:09;2.63;;;0.73;;
45039;SDS011;30778;53.574;7.770;2023-07-13T14:45:38;3.35;;;0.20;;
45039;SDS011;30778;53.574;7.770;2023-07-13T14:50:47;3.83;;;0.20;;
45039;SDS011;30778;53.574;7.770;2023-07-13T14:53:16;2.90;;;0.63;;
45039;SDS011;30778;53.574;7.770;2023-07-13T14:55:41;2.03;;;0.57;;
45039;SDS011;30778;53.574;7.770;2023-07-13T14:58:07;1.55;;;0.28;;
45039;SDS011;30778;53.574;7.770;2023-07-13T15:00:33;1.30;;;0.32;;
45039;SDS011;30778;53.574;7.770;2023-07-13T15:02:59;2.58;;;0.35;;
45039;SDS011;30778;53.574;7.770;2023-07-13T15:05:29;4.72;;;0.30;;
45039;SDS011;30778;53.574;7.770;2023-07-13T15:07:57;6.63;;;1.30;;
45039;SDS011;30778;53.574;7.770;2023-07-13T15:10:29;1.38;;;0.30;;
45039;SDS011;30778;53.574;7.770;2023-07-13T15:13:00;2.72;;;0.55;;
45039;SDS011;30778;53.574;7.770;2023-07-13T15:15:37;2.10;;;0.30;;
45039;SDS011;30778;53.574;7.770;2023-07-13T15:18:05;1.33;;;0.40;;
45039;SDS011;30778;53.574;7.770;2023-07-13T15:20:34;4.20;;;0.30;;
45039;SDS011;30778;53.574;7.770;2023-07-13T15:23:00;1.52;;;0.40;;
45039;SDS011;30778;53.574;7.770;2023-07-13T15:25:28;1.00;;;0.30;;
45039;SDS011;30778;53.574;7.770;2023-07-13T15:27:55;3.47;;;0.22;;
45039;SDS011;30778;53.574;7.770;2023-07-13T15:30:22;7.57;;;0.22;;
45039;SDS011;30778;53.574;7.770;2023-07-13T15:32:52;4.40;;;0.45;;
45039;SDS011;30778;53.574;7.770;2023-07-13T15:35:19;4.25;;;0.68;;
45039;SDS011;30778;53.574;7.770;2023-07-13T15:37:50;0.85;;;0.20;;
45039;SDS011;30778;53.574;7.770;2023-07-13T15:40:15;2.60;;;0.60;;
45039;SDS011;30778;53.574;7.770;2023-07-13T15:42:42;7.07;;;0.57;;
45039;SDS011;30778;53.574;7.770;2023-07-13T15:45:19;3.70;;;0.40;;
45039;SDS011;30778;53.574;7.770;2023-07-13T15:47:47;1.33;;;0.30;;
45039;SDS011;30778;53.574;7.770;2023-07-13T15:50:17;1.48;;;0.25;;
45039;SDS011;30778;53.574;7.770;2023-07-13T15:52:45;3.30;;;0.38;;
45039;SDS011;30778;53.574;7.770;2023-07-13T15:55:13;0.88;;;0.20;;
45039;SDS011;30778;53.574;7.770;2023-07-13T15:57:41;2.85;;;0.30;;